createdAt,value
2024-02-22T00:00:59.863Z,100592.84
2024-02-22T00:03:02.510Z,100594.78
2024-02-22T00:05:06.471Z,100591.88
2024-02-22T00:07:12.157Z,100601.34
2024-02-22T00:09:14.734Z,100595.97
2024-02-22T00:11:17.535Z,100591.38
2024-02-22T00:13:20.269Z,100605.84
2024-02-22T00:15:22.876Z,100597.22
2024-02-22T00:17:26.157Z,100591.81
2024-02-22T00:19:29.172Z,100600.31
2024-02-22T00:21:31.838Z,100603.91
2024-02-22T00:23:35.433Z,100613.16
2024-02-22T00:25:38.256Z,100615.66
2024-02-22T00:27:42.759Z,100612.59
2024-02-22T00:29:45.400Z,100607.75
2024-02-22T00:31:48.186Z,100618.06
2024-02-22T00:33:50.947Z,100610.00
2024-02-22T00:35:53.679Z,100621.28
2024-02-22T00:37:56.343Z,100619.91
2024-02-22T00:39:59.135Z,100621.59
2024-02-22T00:42:02.915Z,100627.91
2024-02-22T00:44:08.823Z,100613.69
2024-02-22T00:46:11.627Z,100619.66
2024-02-22T00:48:14.383Z,100616.22
2024-02-22T00:50:17.202Z,100614.53
2024-02-22T00:52:20.577Z,100623.84
2024-02-22T00:54:23.469Z,100607.03
2024-02-22T00:56:26.041Z,100617.78
2024-02-22T00:58:29.579Z,100612.03
2024-02-22T01:00:32.385Z,100622.38
2024-02-22T01:02:35.131Z,100616.25
2024-02-22T01:04:38.935Z,100608.59
2024-02-22T01:06:41.866Z,100608.75
2024-02-22T01:08:44.520Z,100602.78
2024-02-22T01:10:47.638Z,100610.13
2024-02-22T01:12:50.360Z,100605.25
2024-02-22T01:14:52.895Z,100600.13
2024-02-22T01:16:55.528Z,100598.72
2024-02-22T01:19:00.522Z,100603.44
2024-02-22T01:21:03.439Z,100601.50
2024-02-22T01:23:07.887Z,100604.44
2024-02-22T01:25:12.014Z,100604.16
2024-02-22T01:27:14.919Z,100597.34
2024-02-22T01:29:17.828Z,100599.16
2024-02-22T01:31:21.785Z,100605.69
2024-02-22T01:33:24.485Z,100596.13
2024-02-22T01:35:27.723Z,100589.28
2024-02-22T01:37:30.592Z,100597.09
2024-02-22T01:39:33.797Z,100589.03
2024-02-22T01:41:36.595Z,100580.53
2024-02-22T01:43:39.446Z,100600.03
2024-02-22T01:45:42.067Z,100589.16
2024-02-22T01:47:45.043Z,100578.75
2024-02-22T01:49:48.726Z,100599.91
2024-02-22T01:51:58.876Z,100593.22
2024-02-22T01:54:01.969Z,100596.84
2024-02-22T01:56:07.095Z,100595.28
2024-02-22T01:58:10.391Z,100587.25
2024-02-22T02:00:19.219Z,100586.53
2024-02-22T02:02:22.231Z,100584.59
2024-02-22T02:04:24.985Z,100585.84
2024-02-22T02:06:27.568Z,100587.09
2024-02-22T02:08:30.199Z,100591.81
2024-02-22T02:10:32.973Z,100588.34
2024-02-22T02:12:36.152Z,100591.69
2024-02-22T02:14:39.906Z,100594.06
2024-02-22T02:16:42.736Z,100590.31
2024-02-22T02:18:46.291Z,100594.47
2024-02-22T02:21:00.027Z,100596.16
2024-02-22T02:23:17.429Z,100594.88
2024-02-22T02:25:20.619Z,100591.53
2024-02-22T02:27:23.566Z,100597.25
2024-02-22T02:29:26.349Z,100589.06
2024-02-22T02:31:32.008Z,100587.78
2024-02-22T02:33:34.759Z,100593.66
2024-02-22T02:35:39.280Z,100589.72
2024-02-22T02:37:43.832Z,100587.09
2024-02-22T02:39:46.446Z,100585.72
2024-02-22T02:41:49.078Z,100584.44
2024-02-22T02:43:51.621Z,100594.75
2024-02-22T02:45:54.280Z,100596.56
2024-02-22T02:47:56.947Z,100594.19
2024-02-22T02:50:01.043Z,100601.72
2024-02-22T02:52:04.197Z,100590.84
2024-02-22T02:54:07.157Z,100595.72
2024-02-22T02:56:10.921Z,100600.44
2024-02-22T02:58:13.609Z,100608.34
2024-02-22T03:00:16.890Z,100599.88
2024-02-22T03:02:22.327Z,100604.63
2024-02-22T03:04:26.162Z,100604.47
2024-02-22T03:06:28.956Z,100612.41
2024-02-22T03:08:31.794Z,100605.72
2024-02-22T03:10:34.458Z,100599.75
2024-02-22T03:12:37.220Z,100606.69
2024-02-22T03:14:41.059Z,100604.19
2024-02-22T03:16:44.024Z,100602.41
2024-02-22T03:18:46.757Z,100601.81
2024-02-22T03:20:49.586Z,100608.22
2024-02-22T03:22:52.608Z,100610.44
2024-02-22T03:24:55.967Z,100605.28
2024-02-22T03:27:01.395Z,100629.22
2024-02-22T03:29:04.100Z,100617.13
2024-02-22T03:31:08.693Z,100618.78
2024-02-22T03:33:11.371Z,100624.47
2024-02-22T03:35:14.011Z,100618.78
2024-02-22T03:37:16.593Z,100627.13
2024-02-22T03:39:23.939Z,100628.94
2024-02-22T03:41:26.561Z,100627.94
2024-02-22T03:43:29.501Z,100621.41
2024-02-22T03:45:32.078Z,100639.19
2024-02-22T03:47:34.672Z,100633.50
2024-02-22T03:49:39.988Z,100631.81
2024-02-22T03:51:42.609Z,100624.47
2024-02-22T03:53:46.302Z,100624.19
2024-02-22T03:55:52.010Z,100600.09
2024-02-22T03:57:54.919Z,100627.41
2024-02-22T03:59:57.648Z,100635.19
2024-02-22T04:02:00.543Z,100628.13
2024-02-22T04:04:03.337Z,100639.53
2024-02-22T04:06:06.414Z,100639.25
2024-02-22T04:08:09.126Z,100635.22
2024-02-22T04:10:12.137Z,100632.44
2024-02-22T04:12:15.090Z,100640.66
2024-02-22T04:14:17.905Z,100629.38
2024-02-22T04:16:20.827Z,100617.41
2024-02-22T04:18:23.467Z,100621.03
2024-02-22T04:20:26.489Z,100620.50
2024-02-22T04:22:45.313Z,100630.38
2024-02-22T04:24:48.196Z,100628.25
2024-02-22T04:26:53.201Z,100624.94
2024-02-22T04:28:56.056Z,100634.66
2024-02-22T04:30:59.351Z,100622.56
2024-02-22T04:33:04.895Z,100627.19
2024-02-22T04:35:08.932Z,100638.72
2024-02-22T04:37:11.605Z,100633.88
2024-02-22T04:39:15.527Z,100637.59
2024-02-22T04:41:22.525Z,100627.88
2024-02-22T04:43:25.249Z,100639.13
2024-02-22T04:45:27.877Z,100636.19
2024-02-22T04:47:34.646Z,100618.25
2024-02-22T04:49:37.622Z,100628.53
2024-02-22T04:51:41.612Z,100633.38
2024-02-22T04:53:44.356Z,100638.69
2024-02-22T04:55:47.356Z,100640.19
2024-02-22T04:57:50.344Z,100644.38
2024-02-22T04:59:53.003Z,100624.06
2024-02-22T05:01:55.668Z,100635.44
2024-02-22T05:03:58.534Z,100642.97
2024-02-22T05:06:01.354Z,100643.53
2024-02-22T05:08:04.393Z,100633.91
2024-02-22T05:10:11.227Z,100613.88
2024-02-22T05:12:15.356Z,100639.59
2024-02-22T05:14:20.117Z,100639.88
2024-02-22T05:16:23.023Z,100629.00
2024-02-22T05:18:26.900Z,100646.25
2024-02-22T05:20:31.681Z,100647.63
2024-02-22T05:22:34.689Z,100645.28
2024-02-22T05:24:37.488Z,100639.28
2024-02-22T05:26:40.103Z,100647.06
2024-02-22T05:28:43.362Z,100656.78
2024-02-22T05:30:46.034Z,100654.94
2024-02-22T05:32:48.765Z,100648.06
2024-02-22T05:34:51.430Z,100652.78
2024-02-22T05:36:54.022Z,100651.53
2024-02-22T05:38:56.649Z,100655.25
2024-02-22T05:40:59.198Z,100638.06
2024-02-22T05:43:01.959Z,100645.81
2024-02-22T05:45:05.170Z,100654.03
2024-02-22T05:47:08.135Z,100648.13
2024-02-22T05:49:11.198Z,100648.06
2024-02-22T05:51:14.041Z,100620.25
2024-02-22T05:53:16.697Z,100651.78
2024-02-22T05:55:19.275Z,100648.53
2024-02-22T05:57:21.920Z,100648.91
2024-02-22T05:59:25.499Z,100647.31
2024-02-22T06:01:28.331Z,100649.06
2024-02-22T06:03:31.330Z,100649.28
2024-02-22T06:05:35.255Z,100648.53
2024-02-22T06:07:38.103Z,100650.06
2024-02-22T06:09:43.756Z,100659.19
2024-02-22T06:11:46.996Z,100649.41
2024-02-22T06:13:49.747Z,100653.66
2024-02-22T06:15:52.502Z,100655.03
2024-02-22T06:17:55.516Z,100652.88
2024-02-22T06:19:58.233Z,100646.28
2024-02-22T06:22:00.798Z,100659.09
2024-02-22T06:24:04.280Z,100638.88
2024-02-22T06:26:07.207Z,100649.06
2024-02-22T06:28:11.488Z,100633.59
2024-02-22T06:30:16.282Z,100632.00
2024-02-22T06:32:19.594Z,100645.72
2024-02-22T06:34:22.348Z,100654.06
2024-02-22T06:36:25.449Z,100653.31
2024-02-22T06:38:28.090Z,100651.16
2024-02-22T06:40:31.029Z,100659.47
2024-02-22T06:42:36.876Z,100657.53
2024-02-22T06:44:39.591Z,100654.88
2024-02-22T06:46:44.968Z,100657.28
2024-02-22T06:48:49.772Z,100659.94
2024-02-22T06:50:52.481Z,100639.84
2024-02-22T06:52:55.199Z,100665.84
2024-02-22T06:54:58.257Z,100663.19
2024-02-22T06:57:01.005Z,100663.53
2024-02-22T06:59:03.720Z,100663.72
2024-02-22T07:01:06.657Z,100645.44
2024-02-22T07:03:11.761Z,100649.13
2024-02-22T07:05:26.707Z,100649.94
2024-02-22T07:07:29.483Z,100662.94
2024-02-22T07:09:32.275Z,100653.50
2024-02-22T07:11:34.967Z,100653.16
2024-02-22T07:13:39.105Z,100653.63
2024-02-22T07:15:41.915Z,100656.16
2024-02-22T07:17:46.160Z,100654.97
2024-02-22T07:19:49.696Z,100658.34
2024-02-22T07:21:52.864Z,100658.00
2024-02-22T07:23:55.649Z,100658.16
2024-02-22T07:25:58.305Z,100655.16
2024-02-22T07:28:01.352Z,100646.84
2024-02-22T07:30:04.484Z,100651.19
2024-02-22T07:32:09.555Z,100655.16
2024-02-22T07:34:14.358Z,100657.97
2024-02-22T07:36:17.100Z,100655.47
2024-02-22T07:38:20.918Z,100670.97
2024-02-22T07:40:24.857Z,100657.78
2024-02-22T07:42:27.827Z,100656.47
2024-02-22T07:44:30.644Z,100654.28
2024-02-22T07:46:33.531Z,100653.78
2024-02-22T07:48:36.912Z,100662.44
2024-02-22T07:50:39.748Z,100673.78
2024-02-22T07:52:42.487Z,100668.78
2024-02-22T07:54:47.859Z,100666.63
2024-02-22T07:56:53.597Z,100666.78
2024-02-22T07:58:59.194Z,100668.13
2024-02-22T08:01:11.775Z,100672.94
2024-02-22T08:03:19.140Z,100664.47
2024-02-22T08:05:21.802Z,100673.47
2024-02-22T08:07:24.467Z,100677.47
2024-02-22T08:09:27.068Z,100678.63
2024-02-22T08:11:30.239Z,100675.63
2024-02-22T08:13:33.106Z,100688.63
2024-02-22T08:15:36.422Z,100680.44
2024-02-22T08:17:41.750Z,100694.44
2024-02-22T08:19:46.469Z,100696.09
2024-02-22T08:21:49.206Z,100699.22
2024-02-22T08:23:56.720Z,100691.25
2024-02-22T08:26:03.923Z,100698.06
2024-02-22T08:28:09.802Z,100687.94
2024-02-22T08:30:13.573Z,100693.91
2024-02-22T08:32:17.966Z,100694.91
2024-02-22T08:34:21.041Z,100686.44
2024-02-22T08:36:23.801Z,100695.41
2024-02-22T08:38:29.608Z,100696.03
2024-02-22T08:40:39.017Z,100690.69
2024-02-22T08:42:43.417Z,100702.91
2024-02-22T08:44:46.159Z,100698.59
2024-02-22T08:46:51.478Z,100682.13
2024-02-22T08:48:54.205Z,100684.59
2024-02-22T08:50:59.112Z,100696.69
2024-02-22T08:53:02.173Z,100701.00
2024-02-22T08:55:05.431Z,100705.38
2024-02-22T08:57:08.150Z,100696.00
2024-02-22T08:59:11.014Z,100692.31
2024-02-22T09:01:14.336Z,100701.63
2024-02-22T09:03:17.135Z,100697.44
2024-02-22T09:05:20.795Z,100698.41
2024-02-22T09:07:24.179Z,100702.09
2024-02-22T09:09:27.542Z,100692.44
2024-02-22T09:11:30.919Z,100704.75
2024-02-22T09:13:33.722Z,100683.28
2024-02-22T09:15:36.484Z,100712.88
2024-02-22T09:17:40.182Z,100699.59
2024-02-22T09:19:44.033Z,100694.56
2024-02-22T09:21:49.641Z,100707.88
2024-02-22T09:23:53.627Z,100707.38
2024-02-22T09:25:56.454Z,100702.78
2024-02-22T09:27:59.157Z,100696.84
2024-02-22T09:30:05.593Z,100693.97
2024-02-22T09:32:10.819Z,100699.94
2024-02-22T09:34:14.639Z,100699.19
2024-02-22T09:36:18.369Z,100691.44
2024-02-22T09:38:21.186Z,100700.16
2024-02-22T09:40:25.077Z,100703.31
2024-02-22T09:42:28.986Z,100706.66
2024-02-22T09:44:34.179Z,100700.31
2024-02-22T09:46:39.437Z,100699.59
2024-02-22T09:48:43.793Z,100703.19
2024-02-22T09:50:46.849Z,100700.16
2024-02-22T09:52:50.739Z,100689.66
2024-02-22T09:54:53.466Z,100696.91
2024-02-22T09:56:57.389Z,100687.03
2024-02-22T09:59:01.513Z,100690.13
2024-02-22T10:01:04.508Z,100686.75
2024-02-22T10:03:07.897Z,100674.59
2024-02-22T10:05:11.397Z,100683.34
2024-02-22T10:07:21.421Z,100682.81
2024-02-22T10:09:24.016Z,100689.84
2024-02-22T10:11:26.745Z,100678.63
2024-02-22T10:13:29.987Z,100675.03
2024-02-22T10:15:35.295Z,100677.31
2024-02-22T10:17:39.759Z,100682.53
2024-02-22T10:19:43.310Z,100679.72
2024-02-22T10:21:47.507Z,100670.72
2024-02-22T10:23:59.974Z,100681.34
2024-02-22T10:26:04.756Z,100680.91
2024-02-22T10:28:07.890Z,100681.69
2024-02-22T10:30:12.466Z,100684.47
2024-02-22T10:32:21.711Z,100685.69
2024-02-22T10:34:26.938Z,100686.69
2024-02-22T10:36:30.298Z,100689.69
2024-02-22T10:38:34.008Z,100673.78
2024-02-22T10:40:37.181Z,100692.78
2024-02-22T10:42:41.714Z,100694.09
2024-02-22T10:44:46.490Z,100692.56
2024-02-22T10:46:51.210Z,100691.31
2024-02-22T10:48:54.137Z,100682.59
2024-02-22T10:50:59.489Z,100692.50
2024-02-22T10:53:05.317Z,100685.84
2024-02-22T10:55:15.609Z,100696.84
2024-02-22T10:57:24.727Z,100689.59
2024-02-22T10:59:29.571Z,100677.88
2024-02-22T11:01:36.363Z,100680.38
2024-02-22T11:03:42.173Z,100685.44
2024-02-22T11:05:49.061Z,100675.75
2024-02-22T11:07:53.876Z,100684.38
2024-02-22T11:10:17.110Z,100681.44
2024-02-22T11:12:21.159Z,100686.41
2024-02-22T11:14:34.528Z,100689.28
2024-02-22T11:16:44.054Z,100679.97
2024-02-22T11:18:51.103Z,100684.53
2024-02-22T11:20:56.469Z,100679.56
2024-02-22T11:22:59.443Z,100683.16
2024-02-22T11:25:26.465Z,100683.63
2024-02-22T11:27:29.305Z,100686.66
2024-02-22T11:29:34.580Z,100690.44
2024-02-22T11:31:38.211Z,100689.63
2024-02-22T11:33:42.086Z,100685.88
2024-02-22T11:35:45.079Z,100687.28
2024-02-22T11:38:00.386Z,100692.91
2024-02-22T11:40:05.880Z,100688.75
2024-02-22T11:42:14.796Z,100687.72
2024-02-22T11:44:18.155Z,100687.84
2024-02-22T11:46:21.548Z,100683.53
2024-02-22T11:48:24.339Z,100675.97
2024-02-22T11:50:32.241Z,100679.75
2024-02-22T11:52:35.198Z,100670.88
2024-02-22T11:54:42.837Z,100661.28
2024-02-22T11:56:49.011Z,100674.69
2024-02-22T11:58:52.980Z,100676.16
2024-02-22T12:00:55.755Z,100680.19
2024-02-22T12:02:59.694Z,100669.69
2024-02-22T12:05:04.120Z,100676.63
2024-02-22T12:07:08.713Z,100672.81
2024-02-22T12:09:15.520Z,100674.38
2024-02-22T12:11:19.812Z,100673.50
2024-02-22T12:13:22.766Z,100687.47
2024-02-22T12:15:28.118Z,100649.97
2024-02-22T12:17:35.848Z,100675.72
2024-02-22T12:19:44.636Z,100679.97
2024-02-22T12:21:50.222Z,100674.38
2024-02-22T12:24:04.683Z,100680.06
2024-02-22T12:26:10.450Z,100683.78
2024-02-22T12:28:13.149Z,100678.78
2024-02-22T12:30:16.022Z,100679.97
2024-02-22T12:32:20.353Z,100684.78
2024-02-22T12:34:23.469Z,100667.78
2024-02-22T12:36:26.914Z,100675.22
2024-02-22T12:38:31.005Z,100671.25
2024-02-22T12:40:33.543Z,100680.63
2024-02-22T12:42:36.709Z,100682.41
2024-02-22T12:44:39.415Z,100690.03
2024-02-22T12:46:42.119Z,100686.94
2024-02-22T12:48:45.658Z,100691.41
2024-02-22T12:50:48.369Z,100675.50
2024-02-22T12:52:51.065Z,100686.94
2024-02-22T12:54:54.466Z,100684.16
2024-02-22T12:56:57.006Z,100684.03
2024-02-22T12:59:05.581Z,100674.06
2024-02-22T13:01:08.377Z,100683.91
2024-02-22T13:03:11.290Z,100681.38
2024-02-22T13:05:13.954Z,100673.66
2024-02-22T13:07:19.201Z,100679.94
2024-02-22T13:09:21.890Z,100678.19
2024-02-22T13:11:27.013Z,100676.25
2024-02-22T13:13:29.718Z,100684.41
2024-02-22T13:15:32.400Z,100681.75
2024-02-22T13:17:35.066Z,100689.25
2024-02-22T13:19:37.860Z,100682.03
2024-02-22T13:21:41.848Z,100680.03
2024-02-22T13:23:44.893Z,100678.53
2024-02-22T13:25:47.476Z,100690.44
2024-02-22T13:27:50.292Z,100693.84
2024-02-22T13:29:53.147Z,100664.78
2024-02-22T13:31:59.181Z,100680.81
2024-02-22T13:34:02.436Z,100680.50
2024-02-22T13:36:06.426Z,100677.59
2024-02-22T13:38:16.249Z,100682.66
2024-02-22T13:40:21.268Z,100680.59
2024-02-22T13:42:24.216Z,100683.34
2024-02-22T13:44:30.878Z,100682.41
2024-02-22T13:46:34.331Z,100689.22
2024-02-22T13:48:41.745Z,100691.38
2024-02-22T13:50:44.636Z,100687.78
2024-02-22T13:52:47.344Z,100674.88
2024-02-22T13:54:50.073Z,100680.59
2024-02-22T13:56:52.930Z,100688.75
2024-02-22T13:58:55.583Z,100673.31
2024-02-22T14:00:58.242Z,100673.31
2024-02-22T14:03:01.037Z,100678.63
2024-02-22T14:05:05.786Z,100677.97
2024-02-22T14:07:08.565Z,100685.47
2024-02-22T14:09:11.856Z,100683.94
2024-02-22T14:11:15.597Z,100668.63
2024-02-22T14:13:23.714Z,100682.13
2024-02-22T14:15:26.501Z,100681.28
2024-02-22T14:17:29.547Z,100670.50
2024-02-22T14:19:33.776Z,100655.81
2024-02-22T14:21:36.910Z,100680.66
2024-02-22T14:23:40.189Z,100675.31
2024-02-22T14:25:45.394Z,100676.63
2024-02-22T14:27:48.756Z,100672.94
2024-02-22T14:29:53.518Z,100675.56
2024-02-22T14:31:56.292Z,100675.84
2024-02-22T14:33:58.966Z,100680.63
2024-02-22T14:36:01.582Z,100687.88
2024-02-22T14:38:09.268Z,100682.84
2024-02-22T14:40:13.220Z,100680.66
2024-02-22T14:42:18.387Z,100678.47
2024-02-22T14:44:22.113Z,100682.56
2024-02-22T14:46:24.898Z,100684.72
2024-02-22T14:48:27.576Z,100679.75
2024-02-22T14:50:30.435Z,100689.56
2024-02-22T14:52:33.110Z,100674.19
2024-02-22T14:54:37.008Z,100676.34
2024-02-22T14:56:40.215Z,100668.81
2024-02-22T14:58:46.887Z,100669.75
2024-02-22T15:00:49.621Z,100668.59
2024-02-22T15:02:52.337Z,100649.22
2024-02-22T15:04:56.975Z,100664.75
2024-02-22T15:07:00.844Z,100665.03
2024-02-22T15:09:05.417Z,100665.22
2024-02-22T15:11:08.215Z,100678.28
2024-02-22T15:13:13.916Z,100666.47
2024-02-22T15:15:17.484Z,100655.00
2024-02-22T15:17:23.398Z,100655.84
2024-02-22T15:19:27.000Z,100658.19
2024-02-22T15:21:30.121Z,100650.81
2024-02-22T15:23:36.966Z,100648.25
2024-02-22T15:25:40.091Z,100650.91
2024-02-22T15:27:44.216Z,100653.47
2024-02-22T15:29:49.134Z,100658.28
2024-02-22T15:31:52.344Z,100649.19
2024-02-22T15:34:04.613Z,100668.81
2024-02-22T15:36:11.421Z,100660.94
2024-02-22T15:38:14.151Z,100663.88
2024-02-22T15:40:18.203Z,100667.03
2024-02-22T15:42:21.557Z,100657.84
2024-02-22T15:44:24.918Z,100658.06
2024-02-22T15:46:27.549Z,100650.88
2024-02-22T15:48:30.196Z,100669.50
2024-02-22T15:50:32.967Z,100664.38
2024-02-22T15:52:35.583Z,100674.31
2024-02-22T15:54:38.517Z,100672.34
2024-02-22T15:56:41.536Z,100665.47
2024-02-22T15:58:44.414Z,100662.31
2024-02-22T16:00:48.020Z,100664.44
2024-02-22T16:02:51.042Z,100664.06
2024-02-22T16:04:53.898Z,100670.88
2024-02-22T16:06:56.712Z,100675.22
2024-02-22T16:09:00.277Z,100666.25
2024-02-22T16:11:03.293Z,100675.81
2024-02-22T16:13:07.126Z,100669.00
2024-02-22T16:15:11.627Z,100672.78
2024-02-22T16:17:14.704Z,100668.16
2024-02-22T16:19:17.308Z,100675.31
2024-02-22T16:21:19.973Z,100674.44
2024-02-22T16:23:27.028Z,100676.63
2024-02-22T16:25:32.487Z,100679.00
2024-02-22T16:27:35.636Z,100676.50
2024-02-22T16:29:38.287Z,100673.38
2024-02-22T16:31:41.094Z,100672.38
2024-02-22T16:33:46.208Z,100668.13
2024-02-22T16:35:49.173Z,100676.50
2024-02-22T16:37:51.733Z,100665.34
2024-02-22T16:39:54.361Z,100669.97
2024-02-22T16:41:57.060Z,100668.59
2024-02-22T16:43:59.683Z,100667.16
2024-02-22T16:46:03.913Z,100666.84
2024-02-22T16:48:07.224Z,100662.69
2024-02-22T16:50:10.071Z,100661.63
2024-02-22T16:52:12.862Z,100663.00
2024-02-22T16:54:15.468Z,100662.81
2024-02-22T16:56:18.598Z,100667.03
2024-02-22T16:58:21.324Z,100670.31
2024-02-22T17:00:26.484Z,100660.94
2024-02-22T17:02:30.597Z,100664.97
2024-02-22T17:04:33.233Z,100647.94
2024-02-22T17:06:37.006Z,100654.56
2024-02-22T17:08:39.659Z,100654.22
2024-02-22T17:10:42.413Z,100653.34
2024-02-22T17:12:45.196Z,100653.97
2024-02-22T17:14:50.699Z,100655.41
2024-02-22T17:16:54.109Z,100651.47
2024-02-22T17:18:57.444Z,100643.19
2024-02-22T17:21:00.368Z,100651.69
2024-02-22T17:23:02.974Z,100640.72
2024-02-22T17:25:08.156Z,100647.31
2024-02-22T17:27:12.109Z,100650.66
2024-02-22T17:29:14.706Z,100651.09
2024-02-22T17:31:17.394Z,100648.44
2024-02-22T17:33:22.064Z,100646.09
2024-02-22T17:35:25.644Z,100650.06
2024-02-22T17:37:28.223Z,100658.31
2024-02-22T17:39:32.486Z,100652.84
2024-02-22T17:41:35.700Z,100660.97
2024-02-22T17:43:38.730Z,100664.06
2024-02-22T17:45:41.454Z,100660.44
2024-02-22T17:47:44.017Z,100647.09
2024-02-22T17:49:47.219Z,100665.03
2024-02-22T17:51:53.868Z,100664.72
2024-02-22T17:53:57.932Z,100665.03
2024-02-22T17:56:00.753Z,100664.91
2024-02-22T17:58:03.334Z,100654.19
2024-02-22T18:00:06.816Z,100665.50
2024-02-22T18:02:09.513Z,100664.00
2024-02-22T18:04:12.278Z,100669.28
2024-02-22T18:06:14.998Z,100672.94
2024-02-22T18:08:17.586Z,100672.09
2024-02-22T18:10:20.338Z,100676.03
2024-02-22T18:12:25.200Z,100674.66
2024-02-22T18:14:33.149Z,100673.16
2024-02-22T18:16:35.966Z,100675.66
2024-02-22T18:18:40.383Z,100681.78
2024-02-22T18:20:43.167Z,100683.06
2024-02-22T18:22:45.788Z,100677.78
2024-02-22T18:24:48.389Z,100670.94
2024-02-22T18:26:50.909Z,100671.78
2024-02-22T18:28:53.620Z,100672.91
2024-02-22T18:30:56.211Z,100674.97
2024-02-22T18:32:58.773Z,100674.97
2024-02-22T18:35:01.472Z,100654.09
2024-02-22T18:37:06.205Z,100675.03
2024-02-22T18:39:11.656Z,100673.81
2024-02-22T18:41:18.237Z,100675.38
2024-02-22T18:43:21.402Z,100676.38
2024-02-22T18:45:23.952Z,100668.81
2024-02-22T18:47:26.513Z,100667.38
2024-02-22T18:49:29.006Z,100668.75
2024-02-22T18:51:32.439Z,100668.59
2024-02-22T18:53:35.560Z,100671.91
2024-02-22T18:55:41.164Z,100663.31
2024-02-22T18:57:43.874Z,100680.88
2024-02-22T18:59:47.058Z,100675.56
2024-02-22T19:01:49.635Z,100671.41
2024-02-22T19:03:54.441Z,100669.75
2024-02-22T19:05:57.064Z,100668.75
2024-02-22T19:07:59.663Z,100670.94
2024-02-22T19:10:02.267Z,100674.75
2024-02-22T19:12:05.622Z,100667.91
2024-02-22T19:14:08.385Z,100665.41
2024-02-22T19:16:11.385Z,100666.69
2024-02-22T19:18:14.477Z,100653.03
2024-02-22T19:20:17.325Z,100664.78
2024-02-22T19:22:19.952Z,100666.91
2024-02-22T19:24:24.658Z,100668.88
2024-02-22T19:26:27.282Z,100652.09
2024-02-22T19:28:29.794Z,100652.97
2024-02-22T19:31:01.884Z,100662.97
2024-02-22T19:33:04.572Z,100657.50
2024-02-22T19:35:07.566Z,100652.81
2024-02-22T19:37:10.126Z,100644.47
2024-02-22T19:39:12.704Z,100651.06
2024-02-22T19:41:15.620Z,100652.75
2024-02-22T19:43:18.938Z,100643.81
2024-02-22T19:45:21.435Z,100657.88
2024-02-22T19:47:26.242Z,100663.72
2024-02-22T19:49:29.332Z,100660.91
2024-02-22T19:51:33.034Z,100662.06
2024-02-22T19:53:35.952Z,100659.53
2024-02-22T19:55:38.601Z,100670.31
2024-02-22T19:57:41.129Z,100661.53
2024-02-22T19:59:43.787Z,100661.16
2024-02-22T20:01:47.212Z,100670.75
2024-02-22T20:03:49.827Z,100667.41
2024-02-22T20:05:52.358Z,100656.97
2024-02-22T20:07:55.347Z,100661.28
2024-02-22T20:09:57.964Z,100670.06
2024-02-22T20:12:00.652Z,100659.53
2024-02-22T20:14:08.463Z,100666.16
2024-02-22T20:16:15.098Z,100668.09
2024-02-22T20:18:17.902Z,100672.72
2024-02-22T20:20:20.806Z,100664.75
2024-02-22T20:22:23.387Z,100666.44
2024-02-22T20:24:25.966Z,100669.78
2024-02-22T20:26:28.728Z,100674.25
2024-02-22T20:28:31.313Z,100669.09
2024-02-22T20:30:33.785Z,100675.91
2024-02-22T20:32:36.496Z,100677.09
2024-02-22T20:34:39.189Z,100682.66
2024-02-22T20:36:43.417Z,100682.66
2024-02-22T20:38:46.166Z,100698.41
2024-02-22T20:40:48.679Z,100694.63
2024-02-22T20:42:52.607Z,100691.28
2024-02-22T20:44:57.608Z,100691.69
2024-02-22T20:47:00.423Z,100695.72
2024-02-22T20:49:03.064Z,100702.84
2024-02-22T20:51:05.615Z,100699.63
2024-02-22T20:53:08.482Z,100693.50
2024-02-22T20:55:12.066Z,100698.09
2024-02-22T20:57:14.652Z,100696.47
2024-02-22T20:59:18.476Z,100688.25
2024-02-22T21:01:21.355Z,100682.75
2024-02-22T21:03:26.273Z,100684.00
2024-02-22T21:05:35.398Z,100683.63
2024-02-22T21:07:38.178Z,100691.19
2024-02-22T21:09:40.860Z,100696.78
2024-02-22T21:11:43.422Z,100687.84
2024-02-22T21:13:46.394Z,100689.09
2024-02-22T21:15:49.135Z,100688.56
2024-02-22T21:17:51.804Z,100694.00
2024-02-22T21:19:56.521Z,100699.59
2024-02-22T21:21:59.060Z,100698.78
2024-02-22T21:24:01.957Z,100690.66
2024-02-22T21:26:04.761Z,100692.91
2024-02-22T21:28:07.305Z,100695.88
2024-02-22T21:30:10.295Z,100698.66
2024-02-22T21:32:13.024Z,100689.16
2024-02-22T21:34:15.569Z,100693.22
2024-02-22T21:36:18.219Z,100691.53
2024-02-22T21:38:21.288Z,100689.88
2024-02-22T21:40:23.860Z,100689.56
2024-02-22T21:42:26.448Z,100691.53
2024-02-22T21:44:31.140Z,100695.31
2024-02-22T21:46:34.732Z,100699.47
2024-02-22T21:48:37.274Z,100698.53
2024-02-22T21:50:40.197Z,100699.22
2024-02-22T21:52:43.895Z,100692.91
2024-02-22T21:54:48.625Z,100693.63
2024-02-22T21:56:51.640Z,100690.13
2024-02-22T21:58:54.112Z,100700.03
2024-02-22T22:00:56.736Z,100704.22
2024-02-22T22:02:59.330Z,100701.88
2024-02-22T22:05:02.183Z,100698.34
2024-02-22T22:07:06.040Z,100699.22
2024-02-22T22:09:08.725Z,100698.34
2024-02-22T22:11:11.295Z,100706.03
2024-02-22T22:13:14.029Z,100709.38
2024-02-22T22:15:18.148Z,100717.03
2024-02-22T22:17:21.006Z,100709.38
2024-02-22T22:19:23.814Z,100714.94
2024-02-22T22:21:31.632Z,100710.78
2024-02-22T22:23:37.190Z,100718.44
2024-02-22T22:25:39.817Z,100711.34
2024-02-22T22:27:42.291Z,100717.47
2024-02-22T22:29:44.807Z,100713.16
2024-02-22T22:31:47.483Z,100714.81
2024-02-22T22:33:50.190Z,100710.19
2024-02-22T22:35:52.765Z,100715.38
2024-02-22T22:37:55.333Z,100721.34
2024-02-22T22:39:57.841Z,100717.72
2024-02-22T22:42:00.925Z,100726.09
2024-02-22T22:44:03.852Z,100705.03
2024-02-22T22:46:06.735Z,100717.47
2024-02-22T22:48:10.535Z,100708.94
2024-02-22T22:50:14.303Z,100712.03
2024-02-22T22:52:17.143Z,100704.38
2024-02-22T22:54:19.720Z,100714.03
2024-02-22T22:56:22.276Z,100710.69
2024-02-22T22:58:25.882Z,100708.84
2024-02-22T23:00:28.704Z,100709.00
2024-02-22T23:02:31.779Z,100710.09
2024-02-22T23:04:36.810Z,100714.28
2024-02-22T23:06:39.447Z,100714.03
2024-02-22T23:08:42.197Z,100711.63
2024-02-22T23:10:44.964Z,100719.06
2024-02-22T23:12:47.627Z,100717.22
2024-02-22T23:14:50.335Z,100721.53
2024-02-22T23:16:52.890Z,100727.53
2024-02-22T23:18:55.590Z,100723.09
2024-02-22T23:20:58.298Z,100729.47
2024-02-22T23:23:00.804Z,100711.38
2024-02-22T23:25:04.121Z,100715.72
2024-02-22T23:27:07.074Z,100707.75
2024-02-22T23:29:09.932Z,100707.38
2024-02-22T23:31:12.716Z,100714.59
2024-02-22T23:33:15.370Z,100712.91